Time;durP1;ratioP1;P1;durP2;ratioP2;P2;SDS_P1;SDS_P2;PMS_P1;PMS_P2;Temp;Humidity;BMP_temperature;BMP_pressure;BME280_temperature;BME280_humidity;BME280_pressure;Samples;Min_cycle;Max_cycle;Signal;HPM_P1;HPM_P2
2023/07/21 10:48:15;;;;;;;9.43;3.40;;;;;;;;;;5084609;27;20408;-84
2023/07/21 10:50:47;;;;;;;6.10;3.67;;;;;;;;;;5049593;28;20041;-82
2023/07/21 10:53:12;;;;;;;5.63;3.53;;;;;;;;;;5051575;28;20039;-82
2023/07/21 10:55:38;;;;;;;5.70;3.03;;;;;;;;;;5051277;28;20426;-81
2023/07/21 10:58:04;;;;;;;5.18;3.10;;;;;;;;;;5054444;28;20029;-82
2023/07/21 11:00:41;;;;;;;6.57;3.00;;;;;;;;;;5044400;23;20089;-76
2023/07/21 11:03:07;;;;;;;6.05;3.50;;;;;;;;;;5030485;28;20052;-76
2023/07/21 11:05:36;;;;;;;7.47;3.00;;;;;;;;;;5028585;28;20476;-74
2023/07/21 11:08:02;;;;;;;6.07;3.17;;;;;;;;;;5030307;28;20030;-76
2023/07/21 11:10:33;;;;;;;5.63;3.50;;;;;;;;;;5028450;28;20057;-76
2023/07/21 11:12:59;;;;;;;7.28;3.28;;;;;;;;;;5011978;28;20079;-75
2023/07/21 11:15:25;;;;;;;8.00;3.63;;;;;;;;;;5028356;28;20120;-75
2023/07/21 11:18:00;;;;;;;6.22;3.78;;;;;;;;;;5028195;28;20041;-76
2023/07/21 11:20:26;;;;;;;4.78;3.40;;;;;;;;;;5029117;28;20022;-76
2023/07/21 11:22:52;;;;;;;6.63;3.55;;;;;;;;;;5029344;28;20399;-74
2023/07/21 11:25:17;;;;;;;6.60;3.45;;;;;;;;;;5027323;28;20029;-75
2023/07/21 11:27:45;;;;;;;6.43;3.45;;;;;;;;;;5027507;28;20041;-76
2023/07/21 11:30:20;;;;;;;5.10;3.40;;;;;;;;;;5011808;28;20064;-75
2023/07/21 11:32:46;;;;;;;6.05;3.80;;;;;;;;;;5027525;28;20054;-76
2023/07/21 11:35:12;;;;;;;8.35;3.55;;;;;;;;;;5027269;28;20084;-76
2023/07/21 11:37:38;;;;;;;4.32;3.03;;;;;;;;;;5028927;28;20432;-76
2023/07/21 11:40:13;;;;;;;5.28;3.00;;;;;;;;;;5028751;28;20068;-75
2023/07/21 11:42:47;;;;;;;4.63;2.58;;;;;;;;;;5027516;28;20030;-75
2023/07/21 11:45:35;;;;;;;5.38;2.55;;;;;;;;;;5027194;28;20030;-77
2023/07/21 11:48:03;;;;;;;3.60;2.17;;;;;;;;;;5028304;28;20080;-76
2023/07/21 11:50:29;;;;;;;3.83;2.13;;;;;;;;;;5011009;28;20036;-77
2023/07/21 11:52:57;;;;;;;5.13;2.50;;;;;;;;;;5027205;28;20025;-77
2023/07/21 11:55:23;;;;;;;5.93;2.88;;;;;;;;;;5028420;28;20053;-76
2023/07/21 11:57:49;;;;;;;6.43;2.38;;;;;;;;;;5025580;28;20064;-76
2023/07/21 12:00:17;;;;;;;4.75;2.30;;;;;;;;;;5017251;28;20040;-76
2023/07/21 12:02:43;;;;;;;4.05;1.90;;;;;;;;;;5018025;28;20037;-76
2023/07/21 12:05:09;;;;;;;3.83;1.95;;;;;;;;;;5017467;28;20034;-76
2023/07/21 12:07:35;;;;;;;5.20;1.83;;;;;;;;;;5000715;28;20033;-75
2023/07/21 12:10:01;;;;;;;3.53;2.00;;;;;;;;;;5017141;28;20022;-75
2023/07/21 12:12:26;;;;;;;6.15;2.33;;;;;;;;;;5014029;28;20404;-75
2023/07/21 12:14:52;;;;;;;7.32;3.50;;;;;;;;;;5013858;28;20409;-76
2023/07/21 12:17:18;;;;;;;4.88;1.73;;;;;;;;;;5015099;28;20393;-76
2023/07/21 12:19:43;;;;;;;8.25;1.73;;;;;;;;;;5014005;28;20484;-76
2023/07/21 12:22:10;;;;;;;2.60;1.60;;;;;;;;;;5013653;28;20369;-76
2023/07/21 12:24:36;;;;;;;5.20;1.75;;;;;;;;;;5013613;28;20104;-76
2023/07/21 12:27:04;;;;;;;3.13;1.50;;;;;;;;;;5013604;28;20497;-75
2023/07/21 12:29:30;;;;;;;4.35;1.40;;;;;;;;;;5013628;28;20330;-76
2023/07/21 12:31:56;;;;;;;6.07;1.55;;;;;;;;;;5014683;28;20535;-76
2023/07/21 12:34:22;;;;;;;3.60;1.90;;;;;;;;;;5014465;28;20040;-76
2023/07/21 12:36:48;;;;;;;4.30;2.58;;;;;;;;;;5014495;28;20470;-76
2023/07/21 12:39:14;;;;;;;3.85;1.83;;;;;;;;;;5014375;28;20026;-76
2023/07/21 12:41:40;;;;;;;5.55;2.20;;;;;;;;;;5014345;28;20496;-76
2023/07/21 12:44:05;;;;;;;5.45;1.73;;;;;;;;;;5013174;28;20025;-76
2023/07/21 12:46:31;;;;;;;3.78;2.03;;;;;;;;;;4996605;28;20038;-77
2023/07/21 12:48:57;;;;;;;3.58;2.05;;;;;;;;;;5012973;28;20064;-77
2023/07/21 12:51:23;;;;;;;3.47;2.00;;;;;;;;;;5013056;28;20194;-77
2023/07/21 12:53:49;;;;;;;3.42;2.20;;;;;;;;;;5013480;28;20037;-78
2023/07/21 12:56:14;;;;;;;3.03;1.77;;;;;;;;;;5013033;28;20032;-76
2023/07/21 12:58:40;;;;;;;3.38;1.73;;;;;;;;;;4980492;28;20045;-76
2023/07/21 13:01:06;;;;;;;3.53;2.00;;;;;;;;;;4996561;28;20038;-76
2023/07/21 13:03:32;;;;;;;5.45;2.03;;;;;;;;;;5013974;28;20042;-76
2023/07/21 13:05:58;;;;;;;4.70;2.40;;;;;;;;;;5012568;28;20061;-76
2023/07/21 13:08:24;;;;;;;4.20;2.30;;;;;;;;;;5014123;28;20022;-75
2023/07/21 13:10:52;;;;;;;6.55;2.95;;;;;;;;;;4979241;28;20057;-76
2023/07/21 13:13:18;;;;;;;5.70;2.40;;;;;;;;;;5013973;28;20018;-76
2023/07/21 13:15:44;;;;;;;3.88;2.00;;;;;;;;;;4996395;28;20029;-76
2023/07/21 13:18:10;;;;;;;4.32;2.40;;;;;;;;;;4996359;28;20351;-77
2023/07/21 13:20:36;;;;;;;3.42;1.90;;;;;;;;;;4996132;28;20029;-76
2023/07/21 13:23:01;;;;;;;3.30;1.67;;;;;;;;;;4996394;28;20040;-75
2023/07/21 13:25:27;;;;;;;5.07;1.60;;;;;;;;;;5012411;28;20129;-76
2023/07/21 13:27:53;;;;;;;5.20;1.73;;;;;;;;;;5012267;28;20088;-77
2023/07/21 13:30:19;;;;;;;3.63;1.17;;;;;;;;;;5012549;28;20107;-77
2023/07/21 13:32:45;;;;;;;6.97;1.70;;;;;;;;;;4996433;28;20037;-78
2023/07/21 13:35:10;;;;;;;2.28;1.00;;;;;;;;;;5012740;28;20030;-77
2023/07/21 13:37:36;;;;;;;2.38;1.10;;;;;;;;;;5012963;28;20084;-76
2023/07/21 13:40:02;;;;;;;2.50;1.20;;;;;;;;;;4996826;28;20396;-76
2023/07/21 13:42:28;;;;;;;3.67;1.40;;;;;;;;;;5020944;28;20044;-77
2023/07/21 13:44:55;;;;;;;3.33;1.25;;;;;;;;;;5016448;28;20053;-77
2023/07/21 13:47:20;;;;;;;4.00;1.58;;;;;;;;;;5013781;28;20445;-76
2023/07/21 13:49:46;;;;;;;5.97;2.00;;;;;;;;;;5015049;28;20445;-76
2023/07/21 13:52:14;;;;;;;4.53;1.50;;;;;;;;;;5018264;28;20088;-77
2023/07/21 13:54:40;;;;;;;3.00;1.17;;;;;;;;;;5020762;28;20033;-75
2023/07/21 13:57:07;;;;;;;3.58;1.77;;;;;;;;;;5020970;28;20091;-77
2023/07/21 13:59:32;;;;;;;2.30;1.13;;;;;;;;;;5023882;28;20045;-74
2023/07/21 14:01:58;;;;;;;2.80;1.20;;;;;;;;;;5026967;28;20480;-76
2023/07/21 14:04:23;;;;;;;3.38;1.52;;;;;;;;;;5028306;28;20036;-75
2023/07/21 14:06:49;;;;;;;2.03;1.13;;;;;;;;;;5027986;28;20024;-76
2023/07/21 14:09:16;;;;;;;3.17;1.23;;;;;;;;;;5030960;28;20022;-76
2023/07/21 14:11:51;;;;;;;4.45;1.50;;;;;;;;;;5009359;28;20060;-78
2023/07/21 14:14:22;;;;;;;4.10;1.30;;;;;;;;;;5026066;28;20033;-76
2023/07/21 14:16:49;;;;;;;4.68;1.27;;;;;;;;;;5009091;28;20065;-76
2023/07/21 14:19:24;;;;;;;3.25;1.27;;;;;;;;;;5008616;28;20064;-75
2023/07/21 14:21:50;;;;;;;3.10;1.20;;;;;;;;;;5026973;28;20093;-75
2023/07/21 14:24:16;;;;;;;2.78;1.30;;;;;;;;;;5028322;28;20032;-78
2023/07/21 14:26:43;;;;;;;3.30;1.20;;;;;;;;;;4994232;28;20040;-76
2023/07/21 14:29:14;;;;;;;2.30;1.10;;;;;;;;;;5027329;28;20025;-76
2023/07/21 14:31:42;;;;;;;4.07;1.70;;;;;;;;;;5011485;28;20128;-77
2023/07/21 14:34:12;;;;;;;3.00;1.30;;;;;;;;;;4994232;28;20064;-76
2023/07/21 14:36:37;;;;;;;3.28;1.02;;;;;;;;;;5030015;28;20030;-76
2023/07/21 14:39:08;;;;;;;3.25;1.65;;;;;;;;;;5028788;28;20148;-78
2023/07/21 14:41:36;;;;;;;2.38;1.30;;;;;;;;;;5023582;28;20472;-76
2023/07/21 14:44:02;;;;;;;2.30;1.27;;;;;;;;;;5023679;28;20034;-76
2023/07/21 14:46:28;;;;;;;3.03;1.50;;;;;;;;;;5005798;28;20073;-77
2023/07/21 14:48:54;;;;;;;2.22;1.15;;;;;;;;;;5002238;28;20060;-76
2023/07/21 14:51:21;;;;;;;2.55;1.30;;;;;;;;;;5018534;28;20074;-77
2023/07/21 14:53:49;;;;;;;3.42;1.27;;;;;;;;;;5017829;28;20021;-76
2023/07/21 14:56:15;;;;;;;3.05;1.25;;;;;;;;;;5014999;28;20117;-76
2023/07/21 14:58:40;;;;;;;2.40;1.20;;;;;;;;;;5001187;28;20485;-77
2023/07/21 15:01:06;;;;;;;3.70;1.20;;;;;;;;;;5016210;28;20029;-77
2023/07/21 15:03:35;;;;;;;2.10;1.10;;;;;;;;;;4996936;28;20037;-77
2023/07/21 15:06:00;;;;;;;2.28;1.17;;;;;;;;;;4996099;28;20197;-77
2023/07/21 15:08:26;;;;;;;2.70;1.30;;;;;;;;;;4996333;28;20049;-77
2023/07/21 15:10:58;;;;;;;3.35;1.25;;;;;;;;;;5012440;28;20034;-77
2023/07/21 15:13:29;;;;;;;2.83;1.40;;;;;;;;;;5013041;28;20026;-77
2023/07/21 15:15:58;;;;;;;2.95;1.27;;;;;;;;;;4979355;28;20464;-77
2023/07/21 15:18:25;;;;;;;3.60;1.35;;;;;;;;;;4994591;28;20041;-77
2023/07/21 15:20:55;;;;;;;2.47;1.40;;;;;;;;;;4979426;28;20519;-77
2023/07/21 15:23:20;;;;;;;2.90;1.38;;;;;;;;;;4993917;28;20038;-77
2023/07/21 15:25:47;;;;;;;2.50;1.55;;;;;;;;;;5010135;28;20030;-76
2023/07/21 15:28:17;;;;;;;2.67;1.40;;;;;;;;;;4993707;28;20551;-77
2023/07/21 15:30:45;;;;;;;2.88;1.20;;;;;;;;;;5010170;28;20113;-78
2023/07/21 15:33:16;;;;;;;3.15;1.50;;;;;;;;;;5011121;28;20500;-78
2023/07/21 15:35:46;;;;;;;4.20;1.45;;;;;;;;;;5013838;28;20026;-77
2023/07/21 15:38:12;;;;;;;4.32;1.42;;;;;;;;;;4981514;28;20089;-76
2023/07/21 15:40:38;;;;;;;7.25;2.00;;;;;;;;;;4981791;28;20102;-76
2023/07/21 15:43:04;;;;;;;2.88;1.60;;;;;;;;;;5014128;28;20121;-78
2023/07/21 15:45:30;;;;;;;2.45;1.20;;;;;;;;;;5013761;28;20045;-77
2023/07/21 15:47:56;;;;;;;3.28;1.33;;;;;;;;;;5014609;28;20033;-77
2023/07/21 15:50:25;;;;;;;2.58;1.40;;;;;;;;;;5014803;28;20037;-78
2023/07/21 15:52:51;;;;;;;3.67;1.52;;;;;;;;;;5013886;28;20104;-76
2023/07/21 15:55:16;;;;;;;3.13;1.38;;;;;;;;;;4997483;28;20113;-77
2023/07/21 15:57:42;;;;;;;2.50;1.60;;;;;;;;;;5014240;28;20501;-77
2023/07/21 16:00:14;;;;;;;3.03;1.60;;;;;;;;;;5013438;28;20037;-77
2023/07/21 16:02:41;;;;;;;9.02;2.72;;;;;;;;;;5014759;28;20038;-78
2023/07/21 16:05:07;;;;;;;4.57;2.35;;;;;;;;;;4998766;28;20038;-77
2023/07/21 16:07:33;;;;;;;3.85;2.28;;;;;;;;;;5014951;28;20126;-77
2023/07/21 16:10:00;;;;;;;4.38;1.83;;;;;;;;;;5014764;28;20058;-77
2023/07/21 16:12:26;;;;;;;4.97;2.30;;;;;;;;;;5014497;28;20022;-77
2023/07/21 16:14:52;;;;;;;7.00;3.40;;;;;;;;;;4996889;28;20136;-78
2023/07/21 16:17:18;;;;;;;5.63;2.05;;;;;;;;;;5014364;28;20029;-77
2023/07/21 16:19:44;;;;;;;3.40;1.42;;;;;;;;;;5014294;28;20519;-77
2023/07/21 16:22:09;;;;;;;4.57;2.15;;;;;;;;;;5014169;28;20041;-77
2023/07/21 16:24:35;;;;;;;4.00;2.20;;;;;;;;;;5012857;28;20291;-77
2023/07/21 16:27:01;;;;;;;5.45;2.97;;;;;;;;;;5012878;28;20030;-77
2023/07/21 16:29:26;;;;;;;4.05;2.10;;;;;;;;;;4996344;28;20463;-77
2023/07/21 16:31:52;;;;;;;5.38;2.03;;;;;;;;;;5013792;28;20026;-76
2023/07/21 16:34:18;;;;;;;5.18;2.00;;;;;;;;;;4996512;28;20091;-77
2023/07/21 16:36:44;;;;;;;4.47;2.00;;;;;;;;;;5013200;28;20033;-77
2023/07/21 16:39:10;;;;;;;4.43;1.63;;;;;;;;;;5012799;28;20044;-77
2023/07/21 16:41:36;;;;;;;5.68;2.00;;;;;;;;;;5013750;28;20097;-76
2023/07/21 16:44:03;;;;;;;5.78;2.78;;;;;;;;;;5012632;28;20036;-76
2023/07/21 16:46:28;;;;;;;9.05;3.88;;;;;;;;;;4995213;28;20041;-77
2023/07/21 16:48:54;;;;;;;4.85;2.03;;;;;;;;;;5012346;28;20022;-76
2023/07/21 16:51:20;;;;;;;3.40;1.70;;;;;;;;;;5012504;28;20032;-76
2023/07/21 16:53:46;;;;;;;6.97;1.85;;;;;;;;;;5013594;28;20373;-76
2023/07/21 16:56:12;;;;;;;8.20;2.53;;;;;;;;;;4979892;28;20080;-77
2023/07/21 16:58:41;;;;;;;5.25;2.08;;;;;;;;;;5012364;28;20037;-75
2023/07/21 17:01:07;;;;;;;4.85;2.20;;;;;;;;;;5029523;23;20041;-82
2023/07/21 17:03:33;;;;;;;12.13;2.42;;;;;;;;;;5014861;28;20038;-82
2023/07/21 17:05:59;;;;;;;9.00;2.38;;;;;;;;;;5014537;28;20033;-81
2023/07/21 17:08:24;;;;;;;5.25;2.30;;;;;;;;;;5013581;28;20026;-82
2023/07/21 17:10:50;;;;;;;4.30;2.65;;;;;;;;;;5013589;28;20018;-82
2023/07/21 17:13:16;;;;;;;8.32;2.80;;;;;;;;;;5014873;28;20480;-81
2023/07/21 17:15:41;;;;;;;7.57;3.00;;;;;;;;;;5014700;28;20030;-82
2023/07/21 17:18:07;;;;;;;4.00;2.33;;;;;;;;;;4997646;28;20045;-81
2023/07/21 17:20:33;;;;;;;5.50;2.88;;;;;;;;;;5014187;28;20037;-82
2023/07/21 17:22:58;;;;;;;6.38;3.03;;;;;;;;;;5013499;28;20123;-81
2023/07/21 17:25:25;;;;;;;7.68;3.10;;;;;;;;;;5014423;28;20092;-81
2023/07/21 17:27:52;;;;;;;5.25;2.92;;;;;;;;;;5015413;28;20445;-82
2023/07/21 17:30:18;;;;;;;6.93;3.40;;;;;;;;;;5013541;28;20416;-82
2023/07/21 17:32:43;;;;;;;7.03;3.78;;;;;;;;;;5013681;28;20088;-84
2023/07/21 17:35:09;;;;;;;5.50;2.78;;;;;;;;;;5013618;28;20054;-82
2023/07/21 17:37:35;;;;;;;5.63;3.30;;;;;;;;;;4996810;28;20041;-82
2023/07/21 17:40:01;;;;;;;6.90;3.55;;;;;;;;;;5013454;28;20526;-82
2023/07/21 17:42:26;;;;;;;6.88;3.97;;;;;;;;;;5015344;28;20038;-84
2023/07/21 17:44:52;;;;;;;7.88;3.67;;;;;;;;;;5014901;28;20542;-82
2023/07/21 17:47:17;;;;;;;7.50;3.25;;;;;;;;;;5015581;28;20032;-81
2023/07/21 17:49:43;;;;;;;7.50;3.50;;;;;;;;;;5016768;28;20021;-81
2023/07/21 17:52:09;;;;;;;7.68;2.67;;;;;;;;;;5021846;28;20037;-81
2023/07/21 17:54:35;;;;;;;10.45;3.03;;;;;;;;;;5030749;28;20025;-83
2023/07/21 17:57:01;;;;;;;5.53;2.80;;;;;;;;;;5017576;28;20022;-82
2023/07/21 17:59:26;;;;;;;5.13;2.80;;;;;;;;;;5049792;28;20040;-82
2023/07/21 18:01:55;;;;;;;7.60;2.83;;;;;;;;;;5031687;28;20021;-82
2023/07/21 18:04:23;;;;;;;5.72;2.88;;;;;;;;;;5022101;28;20044;-83
2023/07/21 18:06:51;;;;;;;8.02;2.95;;;;;;;;;;4987189;28;20042;-84
2023/07/21 18:09:17;;;;;;;5.40;2.92;;;;;;;;;;5016933;28;20117;-82
2023/07/21 18:11:43;;;;;;;7.20;2.78;;;;;;;;;;5014704;28;20108;-82
2023/07/21 18:14:08;;;;;;;5.57;2.80;;;;;;;;;;5013324;28;20026;-83
2023/07/21 18:16:34;;;;;;;7.50;2.88;;;;;;;;;;5013890;28;20034;-82
2023/07/21 18:18:59;;;;;;;5.53;2.80;;;;;;;;;;5014625;28;20045;-82
2023/07/21 18:21:25;;;;;;;10.82;4.03;;;;;;;;;;5014378;28;20038;-81
2023/07/21 18:23:50;;;;;;;17.48;8.70;;;;;;;;;;5014497;28;20029;-82
2023/07/21 18:26:16;;;;;;;7.10;3.17;;;;;;;;;;5016753;28;20034;-82
2023/07/21 18:28:41;;;;;;;12.90;6.22;;;;;;;;;;5012874;28;20061;-81
2023/07/21 18:31:08;;;;;;;18.65;8.90;;;;;;;;;;5012953;28;20034;-83
2023/07/21 18:33:34;;;;;;;17.73;8.90;;;;;;;;;;5012718;28;20096;-82
2023/07/21 18:36:08;;;;;;;11.32;5.82;;;;;;;;;;5014591;28;20484;-80
2023/07/21 18:38:34;;;;;;;11.13;5.03;;;;;;;;;;4985851;28;20025;-79
2023/07/21 18:40:59;;;;;;;11.45;4.05;;;;;;;;;;5036916;28;20523;-81
2023/07/21 18:43:25;;;;;;;9.90;4.65;;;;;;;;;;5020570;28;20034;-79
2023/07/21 18:45:51;;;;;;;11.90;5.20;;;;;;;;;;5020354;28;20476;-79
2023/07/21 18:48:18;;;;;;;7.63;3.70;;;;;;;;;;4999268;28;20125;-82
2023/07/21 18:50:43;;;;;;;6.45;3.08;;;;;;;;;;5011693;28;20025;-82
2023/07/21 18:53:09;;;;;;;10.48;3.30;;;;;;;;;;5011533;28;20033;-82
2023/07/21 18:55:36;;;;;;;10.80;4.13;;;;;;;;;;5013348;28;20140;-83
2023/07/21 18:58:02;;;;;;;10.05;5.28;;;;;;;;;;5013691;28;20465;-82
2023/07/21 19:00:28;;;;;;;6.53;3.58;;;;;;;;;;5012174;28;20036;-82
2023/07/21 19:02:53;;;;;;;5.63;3.05;;;;;;;;;;4995284;28;20493;-83
2023/07/21 19:05:19;;;;;;;15.73;5.93;;;;;;;;;;5011731;28;20049;-83
2023/07/21 19:07:47;;;;;;;15.45;6.47;;;;;;;;;;5012531;28;20062;-84
2023/07/21 19:10:13;;;;;;;24.55;10.30;;;;;;;;;;4999749;28;20127;-84
2023/07/21 19:12:41;;;;;;;22.48;8.63;;;;;;;;;;4984357;28;20058;-83
2023/07/21 19:15:07;;;;;;;12.65;5.53;;;;;;;;;;5016042;28;20053;-83
2023/07/21 19:17:34;;;;;;;10.95;4.63;;;;;;;;;;5016978;28;20076;-82
2023/07/21 19:19:59;;;;;;;10.43;4.22;;;;;;;;;;4999673;28;20033;-85
2023/07/21 19:22:25;;;;;;;7.50;4.03;;;;;;;;;;5015861;28;20118;-84
2023/07/21 19:24:51;;;;;;;7.97;4.30;;;;;;;;;;5015661;28;20030;-83
2023/07/21 19:27:18;;;;;;;8.73;3.00;;;;;;;;;;5016116;28;20061;-81
2023/07/21 19:29:47;;;;;;;5.18;2.60;;;;;;;;;;5000145;28;20096;-83
2023/07/21 19:32:13;;;;;;;6.05;3.20;;;;;;;;;;4999989;28;20100;-82
2023/07/21 19:34:38;;;;;;;6.32;3.22;;;;;;;;;;5033374;28;20025;-82
2023/07/21 19:37:04;;;;;;;8.38;3.45;;;;;;;;;;5025541;28;20025;-83
2023/07/21 19:39:31;;;;;;;7.10;3.40;;;;;;;;;;5051507;28;20133;-82
2023/07/21 19:41:57;;;;;;;6.43;3.90;;;;;;;;;;5032983;28;20038;-84
2023/07/21 19:44:22;;;;;;;10.73;6.32;;;;;;;;;;5016546;28;20068;-82
2023/07/21 19:46:48;;;;;;;9.32;6.22;;;;;;;;;;5030619;28;20033;-82
2023/07/21 19:49:14;;;;;;;5.93;3.10;;;;;;;;;;5012580;28;20034;-83
2023/07/21 19:51:39;;;;;;;4.40;2.65;;;;;;;;;;5028875;28;20088;-83
2023/07/21 19:54:06;;;;;;;4.88;2.70;;;;;;;;;;5036568;28;20108;-82
2023/07/21 19:56:32;;;;;;;4.93;2.78;;;;;;;;;;5016445;28;20053;-84
2023/07/21 19:58:58;;;;;;;5.10;2.67;;;;;;;;;;5016726;28;20092;-83
2023/07/21 20:01:23;;;;;;;8.73;4.45;;;;;;;;;;5001054;28;20041;-83
2023/07/21 20:03:49;;;;;;;4.80;2.90;;;;;;;;;;5020628;28;20030;-83
2023/07/21 20:06:14;;;;;;;10.82;5.07;;;;;;;;;;5023408;28;20092;-83
2023/07/21 20:08:40;;;;;;;9.70;3.50;;;;;;;;;;5000953;28;20084;-83
2023/07/21 20:11:06;;;;;;;4.93;2.92;;;;;;;;;;4984665;28;20519;-83
2023/07/21 20:13:32;;;;;;;7.75;2.40;;;;;;;;;;5019112;28;20026;-83
2023/07/21 20:15:58;;;;;;;5.30;2.92;;;;;;;;;;5033928;28;20081;-83
2023/07/21 20:18:23;;;;;;;9.13;3.85;;;;;;;;;;5019548;28;20480;-83
2023/07/21 20:20:54;;;;;;;7.53;3.40;;;;;;;;;;5020150;28;20033;-82
2023/07/21 20:23:20;;;;;;;7.53;3.17;;;;;;;;;;5002450;28;20095;-83
2023/07/21 20:25:46;;;;;;;6.07;3.20;;;;;;;;;;5018941;28;20029;-83
2023/07/21 20:28:12;;;;;;;10.18;4.00;;;;;;;;;;5020165;28;20045;-83
2023/07/21 20:30:38;;;;;;;8.32;4.22;;;;;;;;;;5021285;28;20037;-85
2023/07/21 20:33:07;;;;;;;7.63;3.85;;;;;;;;;;5031591;28;20026;-84
2023/07/21 20:35:32;;;;;;;6.95;3.25;;;;;;;;;;5037432;28;20022;-82
2023/07/21 20:37:58;;;;;;;8.20;4.40;;;;;;;;;;5038485;28;20185;-82
2023/07/21 20:40:24;;;;;;;9.73;5.28;;;;;;;;;;5037709;28;20080;-83
2023/07/21 20:42:49;;;;;;;6.10;3.22;;;;;;;;;;5034227;28;20029;-82
2023/07/21 20:45:15;;;;;;;10.65;6.35;;;;;;;;;;5033416;28;20106;-82
2023/07/21 20:47:40;;;;;;;10.13;3.42;;;;;;;;;;5028322;28;20093;-83
2023/07/21 20:50:06;;;;;;;7.65;3.38;;;;;;;;;;5040750;28;20108;-83
2023/07/21 20:52:32;;;;;;;5.18;2.80;;;;;;;;;;5018139;28;20026;-82
2023/07/21 20:54:58;;;;;;;6.25;3.28;;;;;;;;;;5015661;28;20036;-82
2023/07/21 20:57:24;;;;;;;5.50;3.42;;;;;;;;;;5030985;28;20112;-83
2023/07/21 20:59:49;;;;;;;8.73;4.03;;;;;;;;;;5015064;28;20044;-82
2023/07/21 21:02:16;;;;;;;7.60;3.53;;;;;;;;;;5014918;28;20392;-84
2023/07/21 21:04:42;;;;;;;9.05;5.25;;;;;;;;;;5014530;28;20048;-82
2023/07/21 21:07:08;;;;;;;7.18;3.85;;;;;;;;;;5019296;28;20117;-82
2023/07/21 21:09:34;;;;;;;6.60;3.00;;;;;;;;;;5003114;28;20067;-84
2023/07/21 21:12:00;;;;;;;7.28;3.63;;;;;;;;;;5004697;28;20101;-81
2023/07/21 21:14:27;;;;;;;6.82;3.63;;;;;;;;;;5002208;28;20119;-82
2023/07/21 21:16:52;;;;;;;5.22;3.72;;;;;;;;;;5018259;28;20026;-81
2023/07/21 21:19:18;;;;;;;5.35;3.30;;;;;;;;;;5015321;28;20041;-82
2023/07/21 21:21:43;;;;;;;6.75;3.70;;;;;;;;;;4997109;28;20385;-84
2023/07/21 21:24:10;;;;;;;11.90;3.55;;;;;;;;;;5014456;28;20100;-83
2023/07/21 21:26:35;;;;;;;9.98;4.65;;;;;;;;;;5012985;28;20025;-83
2023/07/21 21:29:01;;;;;;;6.28;3.67;;;;;;;;;;5013092;28;20026;-82
2023/07/21 21:31:27;;;;;;;6.97;3.65;;;;;;;;;;5013416;28;20026;-85
2023/07/21 21:33:52;;;;;;;8.30;4.03;;;;;;;;;;4996393;28;20030;-84
2023/07/21 21:36:18;;;;;;;5.57;3.67;;;;;;;;;;5014240;28;20022;-85
2023/07/21 21:38:44;;;;;;;7.10;3.72;;;;;;;;;;4996881;28;20026;-83
2023/07/21 21:41:09;;;;;;;8.00;3.55;;;;;;;;;;5012614;28;20025;-84
2023/07/21 21:43:35;;;;;;;7.50;3.58;;;;;;;;;;5013148;28;20388;-84
2023/07/21 21:46:00;;;;;;;6.00;3.53;;;;;;;;;;5012353;28;20103;-83
2023/07/21 21:48:26;;;;;;;6.13;3.20;;;;;;;;;;5012649;28;20038;-84
2023/07/21 21:50:52;;;;;;;5.18;3.38;;;;;;;;;;4996054;28;20036;-84
2023/07/21 21:53:18;;;;;;;6.82;3.53;;;;;;;;;;5013611;28;20536;-83
2023/07/21 21:55:44;;;;;;;5.90;3.50;;;;;;;;;;5013382;28;20049;-84
2023/07/21 21:58:09;;;;;;;6.70;3.70;;;;;;;;;;4996564;28;20120;-84
2023/07/21 22:00:40;;;;;;;7.20;3.70;;;;;;;;;;4996916;28;20223;-83
2023/07/21 22:03:07;;;;;;;6.93;3.35;;;;;;;;;;5012875;28;20445;-84
2023/07/21 22:05:33;;;;;;;6.18;4.00;;;;;;;;;;5013329;28;20084;-84
2023/07/21 22:07:59;;;;;;;6.30;3.70;;;;;;;;;;5013986;28;20036;-82
2023/07/21 22:10:24;;;;;;;8.77;3.45;;;;;;;;;;5028895;28;20026;-83
2023/07/21 22:12:50;;;;;;;5.57;3.88;;;;;;;;;;5012105;28;20101;-84
2023/07/21 22:15:19;;;;;;;6.32;3.08;;;;;;;;;;4979952;28;20420;-85
2023/07/21 22:17:45;;;;;;;10.55;3.47;;;;;;;;;;5012400;28;20069;-82
2023/07/21 22:20:12;;;;;;;5.28;3.25;;;;;;;;;;5028245;28;20079;-83
2023/07/21 22:22:38;;;;;;;10.25;4.80;;;;;;;;;;5012192;28;20034;-85
2023/07/21 22:25:06;;;;;;;;;;;;;;;;;;4996644;28;20037;-82
2023/07/21 22:27:34;;;;;;;5.38;3.13;;;;;;;;;;4996560;28;19979;-83
2023/07/21 22:30:00;;;;;;;14.32;3.63;;;;;;;;;;4996155;28;20499;-83
2023/07/21 22:32:28;;;;;;;6.85;2.85;;;;;;;;;;5011895;28;20038;-84
2023/07/21 22:34:54;;;;;;;7.57;3.20;;;;;;;;;;5011694;28;20037;-84
2023/07/21 22:37:19;;;;;;;9.45;3.53;;;;;;;;;;4995478;28;20044;-84
2023/07/21 22:39:45;;;;;;;5.78;3.65;;;;;;;;;;5028405;28;20055;-85
2023/07/21 22:42:10;;;;;;;10.77;3.30;;;;;;;;;;5012344;28;20038;-85
2023/07/21 22:44:36;;;;;;;11.40;3.30;;;;;;;;;;4995784;28;20034;-84
2023/07/21 22:47:02;;;;;;;7.88;3.10;;;;;;;;;;5013560;28;20109;-84
2023/07/21 22:49:28;;;;;;;10.77;3.30;;;;;;;;;;5012331;28;20026;-83
2023/07/21 22:51:54;;;;;;;8.27;3.58;;;;;;;;;;4996307;28;20385;-83
2023/07/21 22:54:19;;;;;;;11.88;3.42;;;;;;;;;;4996515;28;20030;-83
2023/07/21 22:56:45;;;;;;;12.68;3.10;;;;;;;;;;4995742;28;20107;-82
2023/07/21 22:59:10;;;;;;;11.23;3.05;;;;;;;;;;5011478;28;20104;-84
2023/07/21 23:01:37;;;;;;;10.73;3.05;;;;;;;;;;5004916;23;20467;-76
2023/07/21 23:04:02;;;;;;;8.50;3.00;;;;;;;;;;5012893;28;20030;-76
2023/07/21 23:06:28;;;;;;;12.85;3.05;;;;;;;;;;5002392;28;20092;-75
2023/07/21 23:08:53;;;;;;;10.65;3.10;;;;;;;;;;5020453;28;20045;-76
2023/07/21 23:11:19;;;;;;;5.72;2.83;;;;;;;;;;5024062;28;20056;-76
2023/07/21 23:13:45;;;;;;;13.60;4.75;;;;;;;;;;5024740;28;20080;-76
2023/07/21 23:16:10;;;;;;;6.75;3.03;;;;;;;;;;5024235;28;20104;-76
2023/07/21 23:18:36;;;;;;;12.23;3.38;;;;;;;;;;5028208;28;20346;-76
2023/07/21 23:21:01;;;;;;;6.40;3.13;;;;;;;;;;5030442;28;20022;-76
2023/07/21 23:23:29;;;;;;;6.82;4.07;;;;;;;;;;4994946;28;20030;-74
2023/07/21 23:26:00;;;;;;;13.07;3.03;;;;;;;;;;5015394;28;20030;-76
2023/07/21 23:28:26;;;;;;;7.10;2.78;;;;;;;;;;5012764;28;20507;-75
2023/07/21 23:30:56;;;;;;;6.22;2.55;;;;;;;;;;5011456;28;20038;-74
2023/07/21 23:33:22;;;;;;;7.38;2.90;;;;;;;;;;4995869;28;20018;-77
2023/07/21 23:35:48;;;;;;;9.88;3.03;;;;;;;;;;5012375;28;20113;-75
2023/07/21 23:38:13;;;;;;;14.40;3.15;;;;;;;;;;5013143;28;20058;-76
2023/07/21 23:40:39;;;;;;;9.80;2.95;;;;;;;;;;5012960;28;20026;-76
2023/07/21 23:43:04;;;;;;;8.70;3.53;;;;;;;;;;5012170;28;20038;-75
2023/07/21 23:45:30;;;;;;;6.60;2.88;;;;;;;;;;5013150;28;20026;-76
2023/07/21 23:47:55;;;;;;;8.43;2.80;;;;;;;;;;5012129;28;20492;-76
2023/07/21 23:50:22;;;;;;;15.20;3.08;;;;;;;;;;5010460;28;20088;-76
2023/07/21 23:52:48;;;;;;;9.13;3.30;;;;;;;;;;5010480;28;20026;-76
2023/07/21 23:55:14;;;;;;;9.40;3.17;;;;;;;;;;5013922;28;20029;-76
2023/07/21 23:57:39;;;;;;;9.05;3.08;;;;;;;;;;5013973;28;20104;-76
